createdAt,value
2023-03-04T00:02:03.293Z,11.60
2023-03-04T00:05:07.009Z,11.67
2023-03-04T00:08:09.787Z,11.10
2023-03-04T00:11:13.892Z,11.57
2023-03-04T00:14:16.710Z,12.27
2023-03-04T00:17:19.464Z,9.97
2023-03-04T00:20:22.215Z,11.93
2023-03-04T00:23:25.373Z,11.07
2023-03-04T00:26:29.574Z,11.17
2023-03-04T00:29:32.324Z,10.50
2023-03-04T00:32:35.105Z,10.37
2023-03-04T00:35:37.875Z,9.70
2023-03-04T00:38:40.743Z,10.67
2023-03-04T00:41:44.762Z,10.57
2023-03-04T00:44:47.546Z,11.27
2023-03-04T00:47:50.260Z,9.83
2023-03-04T00:50:54.039Z,11.43
2023-03-04T00:53:58.516Z,11.57
2023-03-04T00:57:03.999Z,11.83
2023-03-04T01:00:08.219Z,9.63
2023-03-04T01:03:11.100Z,11.00
2023-03-04T01:06:14.233Z,10.47
2023-03-04T01:09:17.087Z,11.23
2023-03-04T01:12:21.553Z,10.77
2023-03-04T01:15:24.812Z,10.20
2023-03-04T01:18:28.909Z,10.13
2023-03-04T01:21:31.793Z,9.67
2023-03-04T01:24:34.670Z,10.23
2023-03-04T01:27:38.885Z,10.77
2023-03-04T01:30:41.724Z,10.23
2023-03-04T01:33:44.492Z,9.67
2023-03-04T01:36:47.409Z,10.97
2023-03-04T01:39:50.392Z,10.03
2023-03-04T01:42:54.587Z,9.90
2023-03-04T01:45:59.353Z,9.00
2023-03-04T01:49:02.381Z,9.87
2023-03-04T01:52:05.303Z,9.33
2023-03-04T01:55:16.517Z,9.17
2023-03-04T01:58:20.716Z,9.63
2023-03-04T02:01:23.666Z,8.77
2023-03-04T02:04:29.345Z,9.00
2023-03-04T02:07:32.505Z,9.93
2023-03-04T02:10:36.109Z,9.83
2023-03-04T02:13:40.360Z,9.33
2023-03-04T02:16:43.162Z,8.97
2023-03-04T02:19:53.250Z,9.63
2023-03-04T02:23:04.670Z,8.77
2023-03-04T02:26:19.549Z,9.90
2023-03-04T02:29:22.557Z,9.57
2023-03-04T02:32:25.464Z,9.70
2023-03-04T02:35:29.018Z,8.73
2023-03-04T02:38:31.861Z,10.23
2023-03-04T02:41:36.121Z,9.07
2023-03-04T02:44:40.251Z,9.00
2023-03-04T02:47:43.113Z,9.43
2023-03-04T02:50:50.918Z,8.37
2023-03-04T02:53:54.220Z,8.53
2023-03-04T02:57:01.718Z,8.07
2023-03-04T03:00:05.541Z,8.93
2023-03-04T03:03:08.735Z,8.53
2023-03-04T03:06:11.622Z,8.47
2023-03-04T03:09:14.512Z,9.23
2023-03-04T03:12:18.772Z,9.60
2023-03-04T03:15:21.907Z,9.10
2023-03-04T03:18:24.686Z,8.73
2023-03-04T03:21:27.701Z,8.23
2023-03-04T03:24:30.541Z,9.13
2023-03-04T03:27:34.884Z,7.87
2023-03-04T03:30:37.752Z,7.87
2023-03-04T03:33:40.609Z,8.03
2023-03-04T03:36:43.525Z,8.30
2023-03-04T03:39:46.401Z,8.40
2023-03-04T03:42:50.787Z,8.23
2023-03-04T03:45:53.712Z,8.03
2023-03-04T03:48:56.507Z,10.10
2023-03-04T03:51:59.378Z,9.20
2023-03-04T03:55:03.009Z,7.90
2023-03-04T03:58:07.646Z,7.03
2023-03-04T04:01:10.630Z,8.83
2023-03-04T04:04:13.721Z,9.13
2023-03-04T04:07:16.629Z,9.27
2023-03-04T04:10:20.572Z,8.83
2023-03-04T04:13:24.698Z,8.50
2023-03-04T04:16:27.749Z,9.03
2023-03-04T04:19:30.640Z,8.07
2023-03-04T04:22:33.464Z,8.07
2023-03-04T04:25:36.269Z,9.07
2023-03-04T04:28:40.504Z,8.20
2023-03-04T04:31:43.462Z,8.60
2023-03-04T04:34:46.299Z,9.40
2023-03-04T04:37:49.223Z,8.23
2023-03-04T04:40:52.029Z,8.77
2023-03-04T04:43:56.234Z,9.17
2023-03-04T04:46:59.031Z,9.13
2023-03-04T04:50:02.202Z,9.63
2023-03-04T04:53:05.031Z,9.33
2023-03-04T04:56:12.594Z,8.33
2023-03-04T04:59:16.892Z,9.63
2023-03-04T05:02:19.705Z,9.37
2023-03-04T05:05:22.477Z,10.27
2023-03-04T05:08:25.283Z,9.20
2023-03-04T05:11:28.065Z,8.57
2023-03-04T05:14:32.333Z,9.37
2023-03-04T05:17:35.137Z,9.73
2023-03-04T05:20:37.977Z,8.73
2023-03-04T05:23:44.528Z,9.73
2023-03-04T05:26:47.308Z,8.57
2023-03-04T05:29:51.446Z,8.63
2023-03-04T05:32:54.286Z,9.33
2023-03-04T05:35:57.047Z,8.33
2023-03-04T05:38:59.953Z,8.73
2023-03-04T05:42:02.687Z,8.47
2023-03-04T05:45:08.436Z,9.67
2023-03-04T05:48:11.435Z,7.90
2023-03-04T05:51:14.336Z,8.77
2023-03-04T05:54:17.271Z,8.20
2023-03-04T05:57:20.118Z,8.53
2023-03-04T06:00:24.296Z,8.73
2023-03-04T06:03:27.092Z,8.90
2023-03-04T06:06:29.978Z,7.80
2023-03-04T06:09:32.887Z,9.37
2023-03-04T06:12:35.676Z,8.23
2023-03-04T06:15:40.968Z,7.57
2023-03-04T06:18:44.138Z,8.87
2023-03-04T06:21:47.067Z,9.87
2023-03-04T06:24:49.976Z,7.93
2023-03-04T06:27:54.762Z,9.00
2023-03-04T06:30:59.417Z,10.20
2023-03-04T06:34:02.278Z,8.60
2023-03-04T06:37:05.113Z,10.37
2023-03-04T06:40:09.171Z,9.63
2023-03-04T06:43:11.984Z,8.63
2023-03-04T06:46:16.296Z,9.93
2023-03-04T06:49:19.201Z,9.30
2023-03-04T06:52:22.164Z,10.27
2023-03-04T06:55:25.054Z,10.53
2023-03-04T06:58:28.048Z,11.47
2023-03-04T07:01:32.170Z,11.70
2023-03-04T07:04:34.967Z,11.80
2023-03-04T07:07:37.874Z,12.07
2023-03-04T07:10:40.734Z,11.13
2023-03-04T07:13:43.922Z,10.43
2023-03-04T07:16:48.174Z,11.10
2023-03-04T07:19:50.981Z,10.53
2023-03-04T07:22:53.792Z,11.30
2023-03-04T07:25:59.379Z,11.13
2023-03-04T07:29:02.536Z,10.33
2023-03-04T07:32:10.112Z,10.67
2023-03-04T07:35:13.027Z,10.37
2023-03-04T07:38:15.702Z,9.57
2023-03-04T07:41:19.746Z,9.97
2023-03-04T07:44:22.777Z,9.47
2023-03-04T07:47:27.023Z,9.70
2023-03-04T07:50:30.054Z,9.70
2023-03-04T07:53:33.062Z,9.53
2023-03-04T07:56:36.110Z,9.00
2023-03-04T07:59:38.840Z,9.70
2023-03-04T08:02:43.424Z,9.27
2023-03-04T08:05:46.431Z,8.90
2023-03-04T08:08:49.726Z,11.07
2023-03-04T08:11:52.694Z,11.03
2023-03-04T08:14:55.420Z,10.00
2023-03-04T08:17:59.488Z,10.20
2023-03-04T08:21:02.323Z,10.90
2023-03-04T08:24:08.454Z,10.37
2023-03-04T08:27:11.779Z,10.80
2023-03-04T08:30:14.981Z,9.60
2023-03-04T08:33:19.081Z,10.00
2023-03-04T08:36:22.358Z,10.33
2023-03-04T08:39:25.099Z,9.63
2023-03-04T08:42:27.856Z,10.03
2023-03-04T08:45:30.719Z,10.87
2023-03-04T08:48:35.318Z,11.30
2023-03-04T08:51:38.085Z,9.47
2023-03-04T08:54:40.868Z,10.57
2023-03-04T08:57:43.606Z,11.40
2023-03-04T09:00:49.452Z,10.07
2023-03-04T09:03:53.769Z,10.90
2023-03-04T09:06:56.646Z,9.87
2023-03-04T09:09:59.543Z,9.73
2023-03-04T09:13:02.428Z,10.47
2023-03-04T09:16:10.495Z,9.03
2023-03-04T09:19:14.692Z,9.77
2023-03-04T09:22:17.617Z,9.40
2023-03-04T09:25:20.373Z,10.00
2023-03-04T09:28:23.088Z,9.60
2023-03-04T09:31:26.793Z,9.57
2023-03-04T09:34:31.041Z,9.70
2023-03-04T09:37:33.889Z,9.80
2023-03-04T09:40:42.272Z,9.33
2023-03-04T09:43:46.442Z,9.30
2023-03-04T09:46:50.244Z,10.67
2023-03-04T09:49:59.343Z,9.03
2023-03-04T09:53:17.344Z,9.33
2023-03-04T09:56:20.771Z,9.13
2023-03-04T09:59:26.878Z,10.83
2023-03-04T10:02:43.165Z,10.37
2023-03-04T10:05:54.929Z,10.47
2023-03-04T10:09:02.194Z,11.23
2023-03-04T10:12:11.971Z,10.77
2023-03-04T10:15:24.788Z,10.77
2023-03-04T10:18:33.396Z,11.03
2023-03-04T10:21:43.182Z,10.90
2023-03-04T10:24:47.674Z,10.97
2023-03-04T10:27:53.862Z,11.70
2023-03-04T10:31:03.425Z,12.43
2023-03-04T10:34:07.322Z,13.13
2023-03-04T10:37:12.198Z,11.43
2023-03-04T10:40:26.690Z,12.80
2023-03-04T10:43:30.779Z,12.27
2023-03-04T10:46:33.644Z,12.07
2023-03-04T10:49:51.634Z,12.73
2023-03-04T10:52:56.809Z,13.90
2023-03-04T10:55:59.671Z,13.03
2023-03-04T10:59:32.177Z,13.47
2023-03-04T11:02:36.713Z,14.17
2023-03-04T11:05:39.634Z,14.63
2023-03-04T11:08:44.167Z,13.63
2023-03-04T11:11:46.973Z,15.00
2023-03-04T11:14:51.948Z,15.97
2023-03-04T11:17:58.081Z,14.10
2023-03-04T11:21:01.924Z,14.87
2023-03-04T11:24:27.474Z,15.77
2023-03-04T11:27:45.724Z,15.97
2023-03-04T11:30:53.209Z,14.80
2023-03-04T11:34:02.440Z,16.03
2023-03-04T11:37:10.648Z,15.70
2023-03-04T11:40:35.005Z,17.10
2023-03-04T11:43:40.181Z,16.97
2023-03-04T11:47:16.806Z,17.30
2023-03-04T11:50:29.010Z,16.97
2023-03-04T11:53:41.833Z,16.23
2023-03-04T11:56:48.817Z,16.23
2023-03-04T12:00:04.483Z,16.80
2023-03-04T12:03:33.586Z,16.83
2023-03-04T12:06:45.413Z,17.17
2023-03-04T12:10:05.013Z,16.43
2023-03-04T12:13:52.372Z,15.83
2023-03-04T12:17:17.041Z,15.83
2023-03-04T12:20:42.389Z,17.20
2023-03-04T12:24:11.620Z,17.00
2023-03-04T12:27:23.020Z,15.63
2023-03-04T12:30:41.466Z,17.33
2023-03-04T12:33:58.486Z,17.20
2023-03-04T12:37:35.709Z,18.17
2023-03-04T12:40:45.462Z,18.10
2023-03-04T12:43:58.257Z,18.00
2023-03-04T12:47:21.600Z,17.37
2023-03-04T12:50:38.144Z,16.63
2023-03-04T12:53:49.279Z,17.07
2023-03-04T12:56:56.438Z,16.57
2023-03-04T13:00:05.955Z,18.33
2023-03-04T13:03:16.767Z,16.43
2023-03-04T13:06:35.820Z,15.70
2023-03-04T13:09:48.489Z,14.57
2023-03-04T13:12:53.524Z,13.80
2023-03-04T13:16:03.354Z,13.13
2023-03-04T13:19:47.696Z,13.87
2023-03-04T13:22:57.295Z,12.57
2023-03-04T13:26:22.415Z,13.37
2023-03-04T13:29:37.154Z,12.37
2023-03-04T13:32:43.237Z,12.13
2023-03-04T13:35:52.708Z,10.67
2023-03-04T13:39:01.616Z,10.30
2023-03-04T13:42:44.097Z,10.27
2023-03-04T13:45:47.008Z,8.63
2023-03-04T13:49:03.965Z,9.77
2023-03-04T13:52:44.481Z,9.80
2023-03-04T13:56:08.076Z,8.07
2023-03-04T13:59:25.544Z,7.43
2023-03-04T14:02:34.710Z,8.50
2023-03-04T14:05:37.481Z,7.87
2023-03-04T14:08:40.487Z,8.30
2023-03-04T14:11:45.375Z,8.33
2023-03-04T14:14:52.576Z,7.97
2023-03-04T14:17:57.154Z,8.23
2023-03-04T14:21:01.604Z,8.27
2023-03-04T14:24:08.470Z,8.63
2023-03-04T14:27:15.267Z,9.03
2023-03-04T14:30:39.093Z,7.90
2023-03-04T14:33:47.777Z,8.70
2023-03-04T14:36:51.005Z,9.50
2023-03-04T14:39:57.416Z,9.67
2023-03-04T14:43:06.365Z,10.23
2023-03-04T14:46:14.515Z,9.10
2023-03-04T14:49:18.199Z,8.97
2023-03-04T14:52:32.966Z,8.87
2023-03-04T14:55:36.806Z,8.87
2023-03-04T14:58:54.596Z,10.57
2023-03-04T15:02:18.272Z,9.23
2023-03-04T15:05:26.570Z,10.33
2023-03-04T15:08:38.775Z,9.87
2023-03-04T15:11:48.042Z,9.27
2023-03-04T15:14:54.783Z,9.50
2023-03-04T15:18:01.553Z,10.67
2023-03-04T15:21:07.484Z,9.03
2023-03-04T15:24:13.616Z,9.00
2023-03-04T15:27:17.562Z,9.77
2023-03-04T15:30:24.768Z,9.17
2023-03-04T15:33:27.765Z,8.83
2023-03-04T15:36:30.546Z,8.00
2023-03-04T15:39:34.044Z,9.70
2023-03-04T15:42:36.921Z,8.87
2023-03-04T15:45:41.377Z,9.83
2023-03-04T15:48:45.472Z,9.37
2023-03-04T15:51:50.307Z,9.73
2023-03-04T15:54:53.170Z,9.63
2023-03-04T15:57:57.825Z,9.53
2023-03-04T16:01:02.230Z,9.87
2023-03-04T16:04:05.425Z,10.67
2023-03-04T16:07:08.640Z,9.53
2023-03-04T16:10:19.347Z,9.43
2023-03-04T16:13:24.239Z,9.83
2023-03-04T16:16:28.542Z,9.27
2023-03-04T16:19:31.651Z,10.70
2023-03-04T16:22:34.730Z,10.80
2023-03-04T16:25:37.929Z,9.40
2023-03-04T16:28:41.037Z,9.87
2023-03-04T16:31:45.510Z,10.37
2023-03-04T16:34:50.429Z,10.13
2023-03-04T16:37:53.665Z,10.83
2023-03-04T16:40:57.832Z,10.93
2023-03-04T16:44:01.572Z,10.67
2023-03-04T16:47:07.728Z,10.50
2023-03-04T16:50:14.630Z,11.43
2023-03-04T16:53:26.013Z,9.90
2023-03-04T16:56:29.249Z,11.50
2023-03-04T16:59:32.343Z,10.87
2023-03-04T17:02:36.906Z,11.00
2023-03-04T17:05:39.810Z,10.90
2023-03-04T17:08:42.834Z,10.23
2023-03-04T17:11:46.292Z,10.93
2023-03-04T17:14:49.466Z,11.20
2023-03-04T17:17:54.087Z,11.77
2023-03-04T17:21:03.376Z,10.87
2023-03-04T17:24:11.054Z,11.20
2023-03-04T17:27:14.391Z,11.00
2023-03-04T17:30:17.605Z,11.20
2023-03-04T17:33:22.304Z,12.27
2023-03-04T17:36:25.189Z,11.53
2023-03-04T17:39:28.060Z,10.87
2023-03-04T17:42:30.888Z,10.87
2023-03-04T17:45:33.705Z,11.53
2023-03-04T17:48:38.241Z,11.07
2023-03-04T17:51:43.931Z,12.23
2023-03-04T17:54:47.450Z,11.10
2023-03-04T17:57:52.987Z,11.60
2023-03-04T18:01:02.060Z,10.40
2023-03-04T18:04:06.399Z,11.03
2023-03-04T18:07:09.641Z,10.90
2023-03-04T18:10:13.165Z,11.90
2023-03-04T18:13:16.296Z,11.93
2023-03-04T18:16:23.514Z,10.73
2023-03-04T18:19:28.315Z,10.83
2023-03-04T18:22:31.625Z,11.03
2023-03-04T18:25:34.444Z,11.23
2023-03-04T18:28:37.396Z,10.80
2023-03-04T18:31:41.547Z,9.73
2023-03-04T18:34:45.747Z,11.17
2023-03-04T18:37:49.177Z,10.93
2023-03-04T18:40:53.083Z,10.97
2023-03-04T18:43:56.175Z,10.63
2023-03-04T18:46:59.410Z,11.73
2023-03-04T18:50:03.758Z,13.20
2023-03-04T18:53:06.656Z,11.67
2023-03-04T18:56:14.733Z,10.10
2023-03-04T18:59:21.235Z,9.77
2023-03-04T19:02:28.494Z,10.57
2023-03-04T19:05:34.020Z,10.83
2023-03-04T19:08:36.952Z,10.47
2023-03-04T19:11:39.714Z,10.67
2023-03-04T19:14:42.392Z,10.77
2023-03-04T19:17:46.272Z,10.80
2023-03-04T19:20:50.684Z,11.13
2023-03-04T19:23:53.754Z,11.00
2023-03-04T19:26:56.516Z,10.40
2023-03-04T19:29:59.504Z,11.57
2023-03-04T19:33:02.468Z,10.80
2023-03-04T19:36:08.377Z,10.50
2023-03-04T19:39:11.614Z,10.37
2023-03-04T19:42:14.719Z,10.27
2023-03-04T19:45:17.890Z,9.77
2023-03-04T19:48:20.694Z,10.93
2023-03-04T19:51:27.135Z,11.33
2023-03-04T19:54:30.632Z,11.23
2023-03-04T19:57:34.100Z,10.97
2023-03-04T20:00:37.119Z,10.83
2023-03-04T20:03:40.070Z,11.07
2023-03-04T20:06:47.121Z,10.73
2023-03-04T20:09:50.266Z,10.03
2023-03-04T20:12:53.455Z,11.20
2023-03-04T20:15:56.341Z,9.63
2023-03-04T20:18:59.806Z,10.77
2023-03-04T20:22:07.052Z,9.37
2023-03-04T20:25:10.432Z,11.17
2023-03-04T20:28:13.300Z,10.50
2023-03-04T20:31:20.695Z,11.50
2023-03-04T20:34:23.839Z,10.77
2023-03-04T20:37:28.014Z,9.23
2023-03-04T20:40:30.699Z,9.70
2023-03-04T20:43:33.634Z,9.10
2023-03-04T20:46:41.279Z,9.17
2023-03-04T20:49:44.664Z,8.73
2023-03-04T20:52:49.007Z,9.77
2023-03-04T20:55:52.859Z,8.37
2023-03-04T20:58:56.851Z,10.00
2023-03-04T21:01:59.976Z,9.77
2023-03-04T21:05:03.034Z,9.13
2023-03-04T21:08:07.530Z,8.53
2023-03-04T21:11:12.394Z,9.80
2023-03-04T21:14:19.263Z,9.27
2023-03-04T21:17:22.168Z,9.43
2023-03-04T21:20:25.153Z,9.47
2023-03-04T21:23:29.319Z,9.23
2023-03-04T21:26:32.511Z,7.93
2023-03-04T21:29:35.445Z,10.60
2023-03-04T21:32:38.479Z,11.13
2023-03-04T21:35:41.554Z,11.00
2023-03-04T21:38:46.693Z,11.63
2023-03-04T21:41:49.859Z,9.77
2023-03-04T21:44:52.672Z,10.67
2023-03-04T21:47:55.561Z,10.03
2023-03-04T21:51:02.852Z,8.77
2023-03-04T21:54:07.681Z,9.93
2023-03-04T21:57:10.694Z,8.93
2023-03-04T22:00:15.655Z,8.33
2023-03-04T22:03:19.053Z,8.87
2023-03-04T22:06:24.269Z,8.60
2023-03-04T22:09:28.400Z,9.30
2023-03-04T22:12:31.116Z,9.57
2023-03-04T22:15:33.998Z,8.97
2023-03-04T22:18:39.835Z,10.80
2023-03-04T22:21:42.642Z,9.37
2023-03-04T22:24:46.801Z,9.83
2023-03-04T22:27:49.630Z,8.97
2023-03-04T22:30:52.911Z,10.30
2023-03-04T22:33:55.679Z,10.70
2023-03-04T22:36:58.379Z,9.83
2023-03-04T22:40:02.603Z,9.23
2023-03-04T22:43:05.405Z,9.43
2023-03-04T22:46:19.562Z,7.70
2023-03-04T22:49:22.412Z,9.40
2023-03-04T22:52:25.209Z,8.93
2023-03-04T22:55:29.330Z,8.97
2023-03-04T22:58:32.224Z,9.40
2023-03-04T23:01:35.004Z,10.17
2023-03-04T23:04:37.735Z,9.57
2023-03-04T23:07:41.176Z,10.17
2023-03-04T23:10:45.323Z,10.30
2023-03-04T23:13:48.880Z,9.87
2023-03-04T23:16:51.964Z,8.80
2023-03-04T23:19:54.891Z,9.70
2023-03-04T23:22:57.694Z,9.43
2023-03-04T23:26:02.382Z,8.67
2023-03-04T23:29:06.789Z,9.77
2023-03-04T23:32:09.792Z,7.93
2023-03-04T23:35:12.735Z,8.97
2023-03-04T23:38:15.703Z,8.70
2023-03-04T23:41:21.966Z,8.77
2023-03-04T23:44:25.101Z,9.50
2023-03-04T23:47:28.016Z,9.70
2023-03-04T23:50:32.203Z,10.60
2023-03-04T23:53:35.191Z,9.03
2023-03-04T23:56:39.535Z,9.97
2023-03-04T23:59:42.307Z,10.47
